Time;durP1;ratioP1;P1;durP2;ratioP2;P2;SDS_P1;SDS_P2;PMS_P1;PMS_P2;Temp;Humidity;BMP_temperature;BMP_pressure;BME280_temperature;BME280_humidity;BME280_pressure;Samples;Min_cycle;Max_cycle;Signal;HPM_P1;HPM_P2
2021/12/16 00:07:23;;;;;;;47.97;24.37;;;7.10;99.90;;;;;;4861305;29;20052;-88
2021/12/16 00:10:02;;;;;;;47.43;24.77;;;7.20;99.90;;;;;;4845336;29;20495;-88
2021/12/16 00:31:50;;;;;;;45.50;23.20;;;7.90;99.90;;;;;;4920644;29;20055;-88
2021/12/16 00:34:22;;;;;;;41.90;22.60;;;7.30;99.90;;;;;;4920589;29;20063;-87
2021/12/16 00:36:49;;;;;;;49.50;23.73;;;7.90;99.90;;;;;;4937702;29;20062;-88
2021/12/16 00:39:23;;;;;;;43.00;23.20;;;7.60;99.90;;;;;;4919732;29;20055;-88
2021/12/16 00:41:54;;;;;;;45.60;23.87;;;7.10;99.90;;;;;;4920694;29;20472;-88
2021/12/16 00:45:00;;;;;;;40.43;22.37;;;8.10;99.90;;;;;;4920964;29;20055;-88
2021/12/16 00:47:35;;;;;;;45.67;23.73;;;7.80;99.90;;;;;;4918085;29;20087;-88
2021/12/16 00:55:50;;;;;;;46.10;23.60;;;7.40;99.90;;;;;;4936915;29;20047;-87
2021/12/16 00:58:20;;;;;;;46.90;25.07;;;7.20;99.90;;;;;;4920242;29;20095;-88
2021/12/16 01:00:56;;;;;;;45.40;23.57;;;7.40;99.90;;;;;;4919956;29;20044;-87
2021/12/16 01:03:47;;;;;;;50.40;25.33;;;8.20;99.90;;;;;;4920563;29;20079;-88
2021/12/16 01:34:05;;;;;;;;;;;7.90;99.90;;;;;;4936761;29;20052;-88
2021/12/16 01:39:56;;;;;;;48.90;24.87;;;8.30;99.90;;;;;;4937037;29;20176;-88
2021/12/16 01:42:34;;;;;;;48.03;24.87;;;7.30;99.90;;;;;;4918381;29;20048;-88
2021/12/16 01:50:40;;;;;;;44.73;24.07;;;7.40;99.90;;;;;;4919124;29;20106;-88
2021/12/16 01:55:58;;;;;;;46.33;25.33;;;8.00;99.90;;;;;;4935806;29;20052;-88
2021/12/16 01:58:30;;;;;;;47.37;25.07;;;8.60;99.90;;;;;;4936328;29;20052;-88
2021/12/16 02:01:31;;;;;;;44.40;25.10;;;8.30;99.90;;;;;;4918693;29;20420;-88
2021/12/16 02:04:14;;;;;;;47.17;25.10;;;7.90;99.90;;;;;;4918548;29;20054;-88
2021/12/16 02:09:38;;;;;;;50.00;27.40;;;7.30;99.90;;;;;;4919545;29;20134;-88
2021/12/16 02:36:37;;;;;;;52.03;27.73;;;7.70;99.90;;;;;;4919058;29;20142;-88
2021/12/16 02:39:21;;;;;;;52.07;27.20;;;8.10;99.90;;;;;;4917622;29;20060;-88
2021/12/16 02:41:52;;;;;;;51.00;27.30;;;7.40;99.90;;;;;;4918435;29;20063;-89
2021/12/16 02:44:29;;;;;;;51.57;26.57;;;7.10;99.90;;;;;;4918714;29;20381;-89
2021/12/16 02:50:18;;;;;;;47.27;25.60;;;7.50;99.90;;;;;;4887094;29;20052;-89
2021/12/16 02:52:44;;;;;;;50.87;27.83;;;7.50;99.90;;;;;;4934939;29;20114;-89
2021/12/16 02:55:12;;;;;;;47.20;26.00;;;7.40;99.90;;;;;;4918822;29;20441;-88
2021/12/16 02:57:51;;;;;;;52.47;27.77;;;8.50;99.90;;;;;;4918328;29;20058;-88
2021/12/16 03:00:29;;;;;;;52.43;26.93;;;7.80;99.90;;;;;;4917034;29;20459;-88
2021/12/16 03:02:55;;;;;;;52.27;27.27;;;7.90;99.90;;;;;;4934264;29;20083;-89
2021/12/16 03:05:22;;;;;;;57.50;28.73;;;7.60;99.90;;;;;;4917128;29;20496;-88
2021/12/16 03:07:49;;;;;;;48.90;26.50;;;7.30;99.90;;;;;;4933908;29;20059;-88
2021/12/16 03:13:09;;;;;;;52.57;26.83;;;7.30;99.90;;;;;;4935486;29;20047;-88
2021/12/16 03:18:45;;;;;;;50.13;26.50;;;7.50;99.90;;;;;;4918498;29;20048;-88
2021/12/16 03:21:35;;;;;;;49.80;26.30;;;7.70;99.90;;;;;;4917869;29;20070;-88
2021/12/16 03:24:31;;;;;;;52.40;26.87;;;7.70;99.90;;;;;;4914639;29;20124;-88
2021/12/16 03:35:38;;;;;;;50.60;26.23;;;7.40;99.90;;;;;;4915256;29;20134;-89
2021/12/16 03:38:01;;;;;;;46.80;26.90;;;7.10;99.90;;;;;;4914483;29;20474;-88
2021/12/16 03:40:28;;;;;;;51.93;26.33;;;7.30;99.90;;;;;;4919920;29;20048;-89
2021/12/16 03:43:13;;;;;;;52.63;27.03;;;7.20;99.90;;;;;;4916345;29;20505;-89
2021/12/16 03:48:45;;;;;;;47.43;26.77;;;7.30;99.90;;;;;;4915659;29;20067;-88
2021/12/16 03:51:17;;;;;;;50.57;27.43;;;7.20;99.90;;;;;;4914788;29;20048;-85
2021/12/16 03:53:45;;;;;;;50.43;27.27;;;8.30;99.90;;;;;;4914849;29;20052;-86
2021/12/16 03:56:12;;;;;;;54.13;27.93;;;7.30;99.90;;;;;;4915663;29;20063;-86
2021/12/16 03:58:39;;;;;;;52.17;27.83;;;7.70;99.90;;;;;;4914998;29;20044;-86
2021/12/16 04:01:09;;;;;;;55.33;28.20;;;7.20;99.90;;;;;;4915096;29;20079;-86
2021/12/16 04:03:44;;;;;;;50.17;27.90;;;7.50;99.90;;;;;;4917536;29;20147;-86
2021/12/16 04:06:11;;;;;;;52.27;27.17;;;8.00;99.90;;;;;;4918290;29;20469;-86
2021/12/16 04:08:37;;;;;;;52.77;27.53;;;7.30;99.90;;;;;;4918270;29;20070;-86
2021/12/16 04:11:18;;;;;;;53.90;26.50;;;7.50;99.90;;;;;;4916905;29;20056;-86
2021/12/16 04:14:03;;;;;;;53.77;26.63;;;7.30;99.90;;;;;;4917311;29;20051;-85
2021/12/16 04:17:03;;;;;;;53.87;27.00;;;7.30;99.90;;;;;;4918888;29;20051;-86
2021/12/16 04:19:30;;;;;;;55.27;27.77;;;8.00;99.90;;;;;;4887860;29;20056;-86
2021/12/16 04:22:09;;;;;;;53.37;28.07;;;7.80;99.90;;;;;;4918993;29;20099;-86
2021/12/16 04:24:36;;;;;;;55.20;27.87;;;7.40;99.90;;;;;;4932763;29;20408;-86
2021/12/16 04:27:03;;;;;;;61.00;27.07;;;7.20;99.90;;;;;;4920654;29;20437;-86
2021/12/16 04:29:29;;;;;;;65.23;28.57;;;7.30;99.90;;;;;;4921397;29;20094;-86
2021/12/16 04:31:58;;;;;;;56.10;27.93;;;7.00;99.90;;;;;;4919752;29;20072;-86
2021/12/16 04:34:24;;;;;;;61.33;28.67;;;6.60;99.90;;;;;;4921386;29;20050;-87
2021/12/16 04:36:50;;;;;;;60.97;28.07;;;7.90;99.90;;;;;;4921190;29;20571;-86
2021/12/16 04:39:23;;;;;;;60.30;28.00;;;8.20;99.90;;;;;;4919922;29;20048;-87
2021/12/16 04:41:53;;;;;;;60.17;28.53;;;7.10;99.90;;;;;;4920460;29;20053;-87
2021/12/16 04:44:20;;;;;;;58.00;27.83;;;6.30;99.90;;;;;;4921218;29;20064;-87
2021/12/16 04:46:51;;;;;;;57.87;27.80;;;7.80;99.90;;;;;;4919443;29;20051;-87
2021/12/16 04:49:18;;;;;;;57.13;27.40;;;7.50;99.90;;;;;;4920227;29;20048;-87
2021/12/16 04:51:47;;;;;;;57.20;28.63;;;7.60;99.90;;;;;;4951772;23;20052;-86
2021/12/16 04:54:18;;;;;;;62.73;29.33;;;7.30;99.90;;;;;;4936454;29;20048;-86
2021/12/16 04:56:45;;;;;;;60.50;28.60;;;7.20;99.90;;;;;;4936565;29;20060;-86
2021/12/16 04:59:13;;;;;;;55.43;28.20;;;8.10;99.90;;;;;;4935561;29;20048;-87
2021/12/16 05:01:43;;;;;;;58.23;28.63;;;7.50;99.90;;;;;;4935754;29;20126;-86
2021/12/16 05:04:09;;;;;;;59.17;28.37;;;8.20;99.90;;;;;;4936659;29;20382;-86
2021/12/16 05:06:35;;;;;;;51.63;25.97;;;7.30;99.90;;;;;;4935752;29;20056;-86
2021/12/16 05:09:03;;;;;;;56.93;27.43;;;6.80;99.90;;;;;;4936201;29;20060;-86
2021/12/16 05:11:34;;;;;;;53.50;26.40;;;7.50;99.90;;;;;;4937918;29;20048;-87
2021/12/16 05:14:03;;;;;;;54.50;26.53;;;7.40;99.90;;;;;;4934372;29;20154;-86
2021/12/16 05:16:34;;;;;;;60.77;28.83;;;7.90;99.90;;;;;;4936189;29;20103;-86
2021/12/16 05:19:00;;;;;;;58.40;27.17;;;7.30;99.90;;;;;;4935768;29;20079;-87
2021/12/16 05:24:17;;;;;;;56.40;27.67;;;7.00;99.90;;;;;;4936950;29;20051;-86
2021/12/16 05:26:45;;;;;;;58.90;28.20;;;7.40;99.90;;;;;;4940240;29;20047;-86
2021/12/16 05:29:11;;;;;;;54.17;27.47;;;8.20;99.90;;;;;;4937970;29;20574;-87
2021/12/16 05:31:38;;;;;;;55.47;27.70;;;7.70;99.90;;;;;;4936022;29;20055;-86
2021/12/16 05:34:06;;;;;;;56.33;27.33;;;7.60;99.90;;;;;;4936402;29;20051;-86
2021/12/16 05:36:32;;;;;;;51.80;26.40;;;7.60;99.90;;;;;;4942855;29;20043;-87
2021/12/16 05:38:59;;;;;;;64.57;29.40;;;7.20;99.90;;;;;;4936797;29;20086;-86
2021/12/16 05:41:25;;;;;;;54.83;28.30;;;8.10;99.90;;;;;;4934997;29;20512;-86
2021/12/16 05:43:52;;;;;;;54.67;26.17;;;8.10;99.90;;;;;;4935512;29;20130;-87
2021/12/16 05:46:21;;;;;;;57.50;28.00;;;7.70;99.90;;;;;;4935722;29;20048;-87
2021/12/16 05:48:49;;;;;;;64.57;29.03;;;7.30;99.90;;;;;;4935685;29;20083;-87
2021/12/16 05:51:19;;;;;;;56.03;26.93;;;7.60;99.90;;;;;;4934961;29;20095;-87
2021/12/16 05:53:46;;;;;;;55.13;26.80;;;7.90;99.90;;;;;;4935311;29;20052;-86
2021/12/16 05:56:12;;;;;;;54.30;26.63;;;7.50;99.90;;;;;;4934633;29;20139;-87
2021/12/16 05:58:38;;;;;;;61.90;27.77;;;7.90;99.90;;;;;;4935831;29;20449;-88
2021/12/16 06:01:17;;;;;;;55.37;26.00;;;8.30;99.90;;;;;;4934885;29;20059;-87
2021/12/16 06:03:44;;;;;;;52.87;26.80;;;7.50;99.90;;;;;;4934564;29;20047;-87
2021/12/16 06:06:10;;;;;;;56.00;26.07;;;7.90;99.90;;;;;;4936238;29;20047;-88
2021/12/16 06:08:36;;;;;;;55.83;28.03;;;7.20;99.90;;;;;;4934957;29;20130;-88
2021/12/16 06:13:37;;;;;;;54.77;27.47;;;7.90;99.90;;;;;;4936122;29;20102;-87
2021/12/16 06:27:09;;;;;;;50.77;25.37;;;7.50;99.90;;;;;;4934627;29;20498;-88
2021/12/16 06:29:36;;;;;;;50.30;25.67;;;8.00;99.90;;;;;;4936145;29;20051;-88
2021/12/16 06:32:03;;;;;;;52.53;26.20;;;7.20;99.90;;;;;;4934934;29;20075;-88
2021/12/16 06:34:29;;;;;;;51.73;25.90;;;7.50;99.90;;;;;;4935064;29;20400;-87
2021/12/16 06:36:54;;;;;;;48.70;25.37;;;7.70;99.90;;;;;;4934495;29;20124;-88
2021/12/16 06:39:20;;;;;;;47.33;25.13;;;7.90;99.90;;;;;;4933761;29;20086;-88
2021/12/16 06:41:49;;;;;;;53.27;25.83;;;7.60;99.90;;;;;;4935488;29;20043;-88
2021/12/16 06:44:26;;;;;;;49.40;25.57;;;7.40;99.90;;;;;;4934990;29;20046;-88
2021/12/16 06:46:58;;;;;;;49.83;24.93;;;7.90;99.90;;;;;;4934894;29;20090;-88
2021/12/16 06:49:24;;;;;;;47.80;24.27;;;7.90;99.90;;;;;;4934660;29;20081;-88
2021/12/16 06:51:59;;;;;;;48.60;24.47;;;7.60;99.90;;;;;;4931465;29;20066;-88
2021/12/16 06:57:21;;;;;;;53.10;27.17;;;8.40;99.90;;;;;;4935919;29;20057;-88
2021/12/16 06:59:54;;;;;;;53.23;25.90;;;7.80;99.90;;;;;;4933868;29;20079;-88
2021/12/16 07:05:12;;;;;;;49.33;25.17;;;7.40;99.90;;;;;;4933856;29;20449;-88
2021/12/16 07:07:38;;;;;;;50.25;25.17;;;7.80;99.90;;;;;;4935379;29;20130;-88
2021/12/16 07:10:07;;;;;;;48.90;24.77;;;8.60;99.90;;;;;;4933684;29;20056;-88
2021/12/16 07:12:37;;;;;;;53.03;25.90;;;7.60;99.90;;;;;;4933836;29;20052;-88
2021/12/16 07:15:10;;;;;;;54.00;25.30;;;7.10;99.90;;;;;;4933623;29;20051;-88
2021/12/16 07:17:42;;;;;;;51.83;26.20;;;7.60;99.90;;;;;;4934598;29;20070;-88
2021/12/16 07:20:12;;;;;;;52.60;25.80;;;7.80;99.90;;;;;;4934243;29;20048;-88
2021/12/16 07:22:38;;;;;;;55.17;25.00;;;7.50;99.90;;;;;;4940646;28;20059;-88
2021/12/16 07:25:06;;;;;;;53.73;26.80;;;7.30;99.90;;;;;;4935386;29;20051;-88
2021/12/16 07:27:34;;;;;;;56.10;27.13;;;7.50;99.90;;;;;;4934117;29;20066;-88
2021/12/16 07:30:10;;;;;;;56.90;26.57;;;8.00;99.90;;;;;;4938588;29;20055;-88
2021/12/16 07:32:45;;;;;;;51.13;25.50;;;7.40;99.90;;;;;;4937581;29;20080;-88
2021/12/16 07:35:15;;;;;;;53.50;26.00;;;7.20;99.90;;;;;;4933226;29;20468;-88
2021/12/16 07:37:50;;;;;;;55.07;27.90;;;7.20;99.90;;;;;;4936943;29;20044;-88
2021/12/16 07:40:18;;;;;;;85.93;48.40;;;7.40;99.90;;;;;;4938769;29;20045;-88
2021/12/16 07:43:00;;;;;;;59.33;28.73;;;7.70;99.90;;;;;;4938267;29;20401;-88
2021/12/16 07:45:28;;;;;;;55.23;27.10;;;6.60;99.90;;;;;;4938710;29;20069;-88
2021/12/16 07:47:53;;;;;;;58.30;28.53;;;8.30;99.90;;;;;;4937931;29;20047;-88
2021/12/16 07:50:20;;;;;;;62.97;31.07;;;7.70;99.90;;;;;;4937225;29;20063;-87
2021/12/16 07:52:45;;;;;;;63.23;29.30;;;7.90;99.90;;;;;;4938399;29;20106;-88
2021/12/16 07:55:13;;;;;;;65.47;29.17;;;7.00;99.90;;;;;;4937944;29;20139;-88
2021/12/16 07:57:42;;;;;;;61.43;29.13;;;7.00;99.90;;;;;;4937405;29;20055;-88
2021/12/16 08:00:17;;;;;;;66.10;29.50;;;7.20;99.90;;;;;;4937603;29;20052;-84
2021/12/16 08:02:43;;;;;;;65.20;30.20;;;7.60;99.90;;;;;;4936027;29;20075;-82
2021/12/16 08:05:10;;;;;;;73.93;38.93;;;6.90;99.90;;;;;;4936950;29;20122;-82
2021/12/16 08:07:37;;;;;;;74.70;33.87;;;6.80;99.90;;;;;;4938683;29;20176;-82
2021/12/16 08:10:09;;;;;;;70.20;32.83;;;7.00;99.90;;;;;;4935858;29;20480;-82
2021/12/16 08:12:35;;;;;;;74.63;30.93;;;7.00;99.90;;;;;;4938461;29;20043;-82
2021/12/16 08:15:00;;;;;;;79.07;32.37;;;7.00;99.90;;;;;;4937823;29;20126;-82
2021/12/16 08:17:26;;;;;;;73.20;29.70;;;7.00;99.90;;;;;;4936317;29;20058;-82
2021/12/16 08:19:52;;;;;;;70.77;30.50;;;7.00;99.90;;;;;;4936291;29;20051;-82
2021/12/16 08:22:18;;;;;;;74.57;33.87;;;7.00;99.90;;;;;;4938131;29;20050;-82
2021/12/16 08:24:44;;;;;;;80.00;39.60;;;7.00;99.90;;;;;;4935541;29;20051;-81
2021/12/16 08:27:11;;;;;;;80.90;39.20;;;7.00;99.90;;;;;;4936625;29;20396;-81
2021/12/16 08:29:37;;;;;;;80.97;37.00;;;7.00;99.90;;;;;;4935985;29;20138;-82
2021/12/16 08:32:04;;;;;;;102.50;55.97;;;7.10;99.90;;;;;;4937492;29;20048;-82
2021/12/16 08:34:32;;;;;;;96.07;39.33;;;7.10;99.90;;;;;;4935780;29;20043;-82
2021/12/16 08:36:58;;;;;;;156.10;84.97;;;7.10;99.90;;;;;;4935378;29;20051;-82
2021/12/16 08:39:25;;;;;;;72.27;32.13;;;7.10;99.90;;;;;;4936060;29;20051;-82
2021/12/16 08:41:53;;;;;;;123.43;63.77;;;7.20;99.90;;;;;;4936298;29;20051;-82
2021/12/16 08:44:20;;;;;;;78.63;34.70;;;7.30;99.90;;;;;;4936999;29;20106;-82
2021/12/16 08:46:50;;;;;;;92.83;46.23;;;7.30;99.90;;;;;;4935750;29;20047;-82
2021/12/16 08:49:16;;;;;;;75.53;35.37;;;7.40;99.90;;;;;;4935060;29;20105;-82
2021/12/16 08:51:46;;;;;;;75.57;34.50;;;7.40;99.90;;;;;;4936230;29;20448;-82
2021/12/16 08:54:13;;;;;;;82.07;40.87;;;7.50;99.90;;;;;;4936216;29;20051;-82
2021/12/16 08:56:39;;;;;;;70.63;34.00;;;7.60;99.90;;;;;;4936241;29;20512;-82
2021/12/16 08:59:06;;;;;;;68.60;32.30;;;7.60;99.90;;;;;;4934887;29;20048;-82
2021/12/16 09:01:38;;;;;;;73.23;36.60;;;7.70;99.90;;;;;;4935905;29;20392;-82
2021/12/16 09:04:04;;;;;;;68.73;33.13;;;7.70;99.90;;;;;;4937017;29;20091;-85
2021/12/16 09:06:30;;;;;;;60.27;29.97;;;7.80;99.90;;;;;;4935365;29;20519;-83
2021/12/16 09:08:56;;;;;;;69.10;34.10;;;7.70;99.90;;;;;;4935522;29;20047;-82
2021/12/16 09:11:25;;;;;;;63.07;34.30;;;7.70;99.90;;;;;;4935707;29;20047;-81
2021/12/16 09:13:54;;;;;;;63.83;31.07;;;7.80;99.90;;;;;;4934740;29;20512;-82
2021/12/16 09:16:21;;;;;;;77.83;44.03;;;7.80;99.90;;;;;;4935821;29;20519;-81
2021/12/16 09:18:47;;;;;;;65.47;31.00;;;7.80;99.90;;;;;;4935265;29;20082;-81
2021/12/16 09:21:18;;;;;;;70.20;36.20;;;7.80;99.90;;;;;;4934987;29;20047;-81
2021/12/16 09:23:48;;;;;;;69.17;36.37;;;7.80;99.90;;;;;;4935457;29;20122;-81
2021/12/16 09:26:14;;;;;;;67.83;37.97;;;7.90;99.90;;;;;;4935144;29;20610;-81
2021/12/16 09:28:41;;;;;;;67.73;30.73;;;7.90;99.90;;;;;;4935402;29;20485;-81
2021/12/16 09:31:12;;;;;;;64.40;31.17;;;7.90;99.90;;;;;;4936595;29;20043;-81
2021/12/16 09:33:43;;;;;;;62.23;28.60;;;7.90;99.90;;;;;;4935884;29;20500;-81
2021/12/16 09:36:15;;;;;;;57.93;27.57;;;7.90;99.90;;;;;;4936704;29;20078;-82
2021/12/16 09:38:41;;;;;;;65.40;32.53;;;7.80;99.90;;;;;;4935561;29;20048;-82
2021/12/16 09:41:08;;;;;;;67.83;30.73;;;7.90;99.90;;;;;;4934316;29;20051;-81
2021/12/16 09:43:39;;;;;;;66.83;31.10;;;7.80;99.90;;;;;;4919642;29;20480;-81
2021/12/16 09:46:09;;;;;;;66.17;28.20;;;7.80;99.90;;;;;;4936427;29;20054;-81
2021/12/16 09:48:39;;;;;;;136.43;34.10;;;7.80;99.90;;;;;;4934494;29;20031;-82
2021/12/16 09:51:07;;;;;;;61.83;28.00;;;7.80;99.90;;;;;;4934717;29;20070;-82
2021/12/16 09:53:36;;;;;;;74.47;28.63;;;7.80;99.90;;;;;;4936315;29;20051;-82
2021/12/16 09:56:04;;;;;;;64.17;28.60;;;7.80;99.90;;;;;;4933918;29;20039;-82
2021/12/16 09:58:33;;;;;;;68.10;27.77;;;7.80;99.90;;;;;;4934618;29;20500;-82
2021/12/16 10:01:00;;;;;;;64.97;27.67;;;7.90;99.90;;;;;;4934470;29;20500;-84
2021/12/16 10:03:27;;;;;;;74.87;29.13;;;7.90;99.90;;;;;;4934185;29;20511;-84
2021/12/16 10:05:53;;;;;;;65.67;27.90;;;7.90;99.90;;;;;;4934424;29;20048;-83
2021/12/16 10:08:18;;;;;;;74.87;28.47;;;7.90;99.90;;;;;;4932391;29;20062;-83
2021/12/16 10:10:44;;;;;;;72.00;29.47;;;8.00;99.90;;;;;;4915080;29;20044;-85
2021/12/16 10:13:12;;;;;;;58.90;27.83;;;8.00;99.90;;;;;;4915441;29;20048;-84
2021/12/16 10:18:16;;;;;;;64.43;30.17;;;8.00;99.90;;;;;;4915188;29;20052;-82
2021/12/16 10:20:44;;;;;;;59.63;26.80;;;8.10;99.90;;;;;;4915359;29;20051;-82
2021/12/16 10:23:18;;;;;;;63.80;26.77;;;8.10;99.90;;;;;;4915505;29;20043;-82
2021/12/16 10:26:06;;;;;;;59.43;25.23;;;8.20;99.90;;;;;;4915804;29;20052;-82
2021/12/16 10:28:37;;;;;;;59.23;28.63;;;8.20;99.90;;;;;;4915823;29;20066;-82
2021/12/16 10:31:27;;;;;;;50.60;25.10;;;8.20;99.90;;;;;;4930228;29;20131;-82
2021/12/16 10:34:10;;;;;;;53.57;26.87;;;8.20;99.90;;;;;;4917748;29;20115;-82
2021/12/16 10:36:39;;;;;;;50.77;23.70;;;8.20;99.90;;;;;;4918043;29;20051;-83
2021/12/16 10:39:12;;;;;;;51.07;24.93;;;8.90;99.90;;;;;;4918061;29;20047;-82
2021/12/16 10:41:47;;;;;;;70.07;26.77;;;8.20;99.90;;;;;;4935670;29;20079;-84
2021/12/16 10:44:17;;;;;;;87.53;28.20;;;8.30;99.90;;;;;;4917941;29;20091;-84
2021/12/16 10:46:45;;;;;;;86.07;45.40;;;8.30;99.90;;;;;;4918259;29;20040;-83
2021/12/16 10:49:14;;;;;;;113.60;30.87;;;8.30;99.90;;;;;;4918521;29;20043;-82
2021/12/16 10:51:50;;;;;;;78.33;27.13;;;8.40;99.90;;;;;;4917175;29;20059;-82
2021/12/16 10:54:20;;;;;;;56.23;23.27;;;8.40;99.90;;;;;;4918408;29;20051;-82
2021/12/16 10:56:48;;;;;;;48.77;22.43;;;8.40;99.90;;;;;;4918714;29;20404;-82
2021/12/16 10:59:38;;;;;;;44.93;21.43;;;8.40;99.90;;;;;;4917527;29;20500;-82
2021/12/16 11:02:23;;;;;;;46.97;21.67;;;8.40;99.90;;;;;;4918336;29;20539;-82
2021/12/16 11:05:04;;;;;;;49.57;21.00;;;8.30;99.90;;;;;;4917476;29;20111;-82
2021/12/16 11:07:45;;;;;;;130.87;68.97;;;8.30;99.90;;;;;;4918320;29;20059;-83
2021/12/16 11:10:13;;;;;;;55.73;26.83;;;8.30;99.90;;;;;;4918263;29;20044;-82
2021/12/16 11:12:38;;;;;;;57.23;29.53;;;8.30;99.90;;;;;;4920673;29;20044;-83
2021/12/16 11:15:07;;;;;;;52.83;24.27;;;8.30;99.90;;;;;;4921743;29;20476;-82
2021/12/16 11:17:59;;;;;;;57.17;26.87;;;8.20;99.90;;;;;;4921824;29;20048;-82
2021/12/16 11:20:43;;;;;;;57.53;24.60;;;8.20;99.90;;;;;;4921438;29;20044;-82
2021/12/16 11:23:14;;;;;;;;;;;8.30;99.90;;;;;;4922310;29;20102;-82
2021/12/16 11:25:51;;;;;;;57.40;23.77;;;8.20;99.90;;;;;;4921173;29;20272;-82
2021/12/16 11:28:21;;;;;;;54.87;28.13;;;8.30;99.90;;;;;;4925624;29;20094;-82
2021/12/16 11:30:56;;;;;;;58.23;28.70;;;8.30;99.90;;;;;;4937329;29;20125;-82
2021/12/16 11:33:38;;;;;;;60.77;30.13;;;8.30;99.90;;;;;;4936651;29;20062;-82
2021/12/16 11:36:13;;;;;;;55.73;24.83;;;8.40;99.90;;;;;;4929102;29;20501;-82
2021/12/16 11:38:51;;;;;;;55.67;25.93;;;8.40;99.90;;;;;;4918373;29;20138;-83
2021/12/16 11:41:21;;;;;;;52.10;23.70;;;8.40;99.90;;;;;;4917529;29;20040;-82
2021/12/16 11:43:50;;;;;;;55.67;25.03;;;8.50;99.90;;;;;;4918003;29;20054;-83
2021/12/16 11:46:18;;;;;;;51.93;22.90;;;8.50;99.90;;;;;;4919444;29;20052;-83
2021/12/16 11:48:44;;;;;;;50.70;22.77;;;8.50;99.90;;;;;;4917243;29;20048;-83
2021/12/16 11:51:17;;;;;;;54.20;23.63;;;8.50;99.90;;;;;;4918021;29;20400;-83
2021/12/16 11:53:56;;;;;;;58.23;28.60;;;8.50;99.90;;;;;;4917204;29;20458;-83
2021/12/16 11:56:39;;;;;;;57.87;27.00;;;8.50;99.90;;;;;;4929417;29;20138;-82
2021/12/16 11:59:06;;;;;;;56.33;26.43;;;8.40;99.90;;;;;;4938100;29;20047;-83
2021/12/16 12:01:34;;;;;;;53.13;23.80;;;8.40;99.90;;;;;;4934536;29;20057;-83
2021/12/16 12:04:06;;;;;;;58.20;25.63;;;8.40;99.90;;;;;;4937262;29;20392;-83
2021/12/16 12:06:33;;;;;;;68.93;30.43;;;8.40;99.90;;;;;;4934779;29;20107;-83
2021/12/16 12:09:00;;;;;;;63.37;28.03;;;8.50;99.90;;;;;;4947333;29;20054;-83
2021/12/16 12:11:33;;;;;;;77.53;25.67;;;8.50;99.90;;;;;;4937932;29;20043;-83
2021/12/16 12:14:20;;;;;;;61.50;27.57;;;8.40;99.90;;;;;;4938668;29;20456;-83
2021/12/16 12:16:47;;;;;;;64.63;27.80;;;8.40;99.90;;;;;;4934835;29;20131;-84
2021/12/16 12:19:23;;;;;;;69.57;29.13;;;9.00;99.90;;;;;;4936771;29;20054;-83
2021/12/16 12:22:00;;;;;;;64.60;26.37;;;8.50;99.90;;;;;;4934984;29;20044;-83
2021/12/16 12:24:44;;;;;;;57.10;25.23;;;8.40;99.90;;;;;;4935320;29;20075;-84
2021/12/16 12:27:13;;;;;;;54.13;25.73;;;8.20;99.90;;;;;;4938605;29;20110;-83
2021/12/16 12:29:53;;;;;;;59.97;26.23;;;8.30;99.90;;;;;;4938958;29;20400;-84
2021/12/16 12:32:21;;;;;;;59.00;25.37;;;8.50;99.90;;;;;;4939740;29;20065;-84
2021/12/16 12:35:00;;;;;;;63.23;28.57;;;8.40;99.90;;;;;;4939319;29;20110;-84
2021/12/16 12:37:27;;;;;;;57.53;27.13;;;8.40;99.90;;;;;;4938805;29;20058;-85
2021/12/16 12:40:04;;;;;;;50.43;25.20;;;8.60;99.90;;;;;;4939338;29;20515;-84
2021/12/16 12:42:30;;;;;;;54.53;25.53;;;8.50;99.90;;;;;;4939318;29;20049;-86
2021/12/16 12:44:57;;;;;;;54.03;25.10;;;7.90;99.90;;;;;;4938238;29;20043;-84
2021/12/16 12:47:27;;;;;;;55.50;24.97;;;8.70;99.90;;;;;;4938973;29;20039;-83
2021/12/16 12:50:04;;;;;;;56.87;23.90;;;8.70;99.90;;;;;;4938483;29;20050;-83
2021/12/16 12:52:36;;;;;;;51.83;24.57;;;8.60;99.90;;;;;;4939469;29;20133;-84
2021/12/16 12:55:13;;;;;;;53.07;23.50;;;8.30;99.90;;;;;;4939051;29;20070;-84
2021/12/16 12:57:41;;;;;;;57.77;24.60;;;8.60;99.90;;;;;;4938413;29;20058;-83
2021/12/16 13:00:27;;;;;;;50.37;21.77;;;8.70;99.90;;;;;;4939607;29;20122;-83
2021/12/16 13:03:03;;;;;;;45.77;20.93;;;8.50;99.90;;;;;;4939208;29;20086;-84
2021/12/16 13:05:30;;;;;;;48.57;21.13;;;8.50;99.90;;;;;;4938335;29;20043;-84
2021/12/16 13:08:19;;;;;;;47.90;22.20;;;8.70;99.90;;;;;;4940387;29;20047;-83
2021/12/16 13:10:48;;;;;;;46.57;22.30;;;8.50;99.90;;;;;;4938425;29;20051;-84
2021/12/16 13:16:14;;;;;;;46.93;22.47;;;8.10;99.90;;;;;;4939142;29;20055;-84
2021/12/16 13:27:42;;;;;;;51.53;20.60;;;8.40;99.90;;;;;;4938207;29;20059;-84
2021/12/16 13:32:44;;;;;;;50.60;20.97;;;8.40;99.90;;;;;;4955331;29;20052;-84
2021/12/16 13:37:50;;;;;;;58.77;21.83;;;8.40;99.90;;;;;;4938158;29;20122;-83
2021/12/16 13:40:30;;;;;;;56.73;22.77;;;8.40;99.90;;;;;;4955032;29;20070;-84
2021/12/16 13:43:18;;;;;;;56.20;22.83;;;8.40;99.90;;;;;;4938105;29;20126;-84
2021/12/16 13:45:59;;;;;;;53.70;22.10;;;8.40;99.90;;;;;;4937952;29;20106;-84
2021/12/16 13:49:00;;;;;;;51.97;20.70;;;8.40;99.90;;;;;;4938025;29;20035;-83
2021/12/16 14:01:09;;;;;;;46.77;19.47;;;8.40;99.90;;;;;;4954939;29;20043;-83
2021/12/16 14:06:55;;;;;;;47.73;18.10;;;8.40;99.90;;;;;;4955604;29;20053;-83
2021/12/16 14:09:27;;;;;;;49.97;19.65;;;8.40;99.90;;;;;;4953571;29;20842;-83
2021/12/16 14:14:52;;;;;;;55.53;19.50;;;8.40;99.90;;;;;;4937342;29;20055;-83
2021/12/16 14:23:13;;;;;;;47.97;18.47;;;8.40;99.90;;;;;;4954504;29;20055;-83
2021/12/16 14:42:11;;;;;;;52.73;21.07;;;8.40;99.90;;;;;;4937471;29;20091;-83
2021/12/16 14:48:06;;;;;;;59.73;21.73;;;8.30;99.90;;;;;;4937417;29;20051;-84
2021/12/16 14:50:35;;;;;;;51.87;20.73;;;8.30;99.90;;;;;;4933469;29;20064;-83
2021/12/16 14:53:19;;;;;;;50.73;21.20;;;8.30;99.90;;;;;;4934112;29;20055;-84
2021/12/16 14:55:46;;;;;;;47.20;19.63;;;8.30;99.90;;;;;;4933938;29;20070;-83
2021/12/16 14:58:12;;;;;;;45.27;19.90;;;8.30;99.90;;;;;;4934926;29;20466;-83
2021/12/16 15:00:52;;;;;;;49.53;19.80;;;8.30;99.90;;;;;;4935559;29;20066;-83
2021/12/16 15:03:26;;;;;;;49.43;19.60;;;8.30;99.90;;;;;;4936986;29;20059;-83
2021/12/16 15:05:55;;;;;;;51.53;21.17;;;9.10;99.90;;;;;;4933480;29;20051;-84
2021/12/16 15:08:48;;;;;;;46.07;19.33;;;8.30;99.90;;;;;;4934059;29;20044;-83
2021/12/16 15:11:48;;;;;;;44.23;18.73;;;8.30;99.90;;;;;;4933226;29;20043;-83
2021/12/16 15:14:40;;;;;;;46.03;19.07;;;8.40;99.90;;;;;;4935921;29;20043;-84
2021/12/16 15:45:11;;;;;;;41.47;16.30;;;8.10;99.90;;;;;;4934661;29;20508;-82
2021/12/16 15:47:39;;;;;;;44.72;17.75;;;8.10;99.90;;;;;;4934293;29;20043;-83
2021/12/16 15:50:06;;;;;;;52.07;18.83;;;8.10;99.90;;;;;;4934438;29;20048;-82
2021/12/16 15:52:51;;;;;;;54.07;19.83;;;8.10;99.90;;;;;;4936863;29;20087;-83
2021/12/16 15:55:25;;;;;;;59.50;21.13;;;8.10;99.90;;;;;;4937269;29;20103;-83
2021/12/16 15:57:51;;;;;;;57.93;21.50;;;8.10;99.90;;;;;;4955468;28;20047;-83
2021/12/16 16:00:21;;;;;;;75.37;22.90;;;8.10;99.90;;;;;;4939412;29;20514;-83
2021/12/16 16:02:47;;;;;;;64.83;22.83;;;8.10;99.90;;;;;;4939777;29;20043;-83
2021/12/16 16:05:13;;;;;;;66.23;23.03;;;8.10;99.90;;;;;;4940358;29;20485;-86
2021/12/16 16:07:40;;;;;;;71.40;23.90;;;8.00;99.90;;;;;;4939331;29;20497;-87
2021/12/16 16:10:09;;;;;;;76.03;25.00;;;8.20;99.90;;;;;;4957234;29;20054;-85
2021/12/16 16:12:35;;;;;;;76.03;24.80;;;8.10;99.90;;;;;;4939886;29;20191;-85
2021/12/16 16:15:16;;;;;;;75.10;23.67;;;8.20;99.90;;;;;;4939017;29;20166;-85
2021/12/16 16:17:54;;;;;;;68.67;21.93;;;8.10;99.90;;;;;;4936483;29;20071;-85
2021/12/16 16:20:22;;;;;;;72.33;23.20;;;8.70;99.90;;;;;;4928152;29;20099;-84
2021/12/16 16:22:48;;;;;;;81.10;24.43;;;8.90;99.90;;;;;;4936067;29;20052;-85
2021/12/16 16:25:14;;;;;;;79.50;34.70;;;8.30;99.90;;;;;;4938099;29;20109;-85
2021/12/16 16:27:40;;;;;;;97.83;26.83;;;8.30;99.90;;;;;;4936583;29;20044;-85
2021/12/16 16:30:07;;;;;;;100.10;31.97;;;8.60;99.90;;;;;;4935907;29;20054;-85
2021/12/16 16:33:01;;;;;;;120.63;30.33;;;8.00;99.90;;;;;;4937609;29;20054;-85
2021/12/16 16:35:28;;;;;;;116.13;30.23;;;8.00;99.90;;;;;;4935843;29;20055;-86
2021/12/16 16:38:17;;;;;;;158.40;50.93;;;8.30;99.90;;;;;;4938305;29;20086;-86
2021/12/16 16:40:46;;;;;;;174.03;55.93;;;8.50;99.90;;;;;;4936277;29;20051;-88
2021/12/16 16:43:19;;;;;;;133.33;35.53;;;8.30;99.90;;;;;;4931947;29;20063;-86
2021/12/16 16:45:48;;;;;;;132.88;33.42;;;7.90;99.90;;;;;;4939233;29;20612;-86
2021/12/16 16:48:29;;;;;;;134.93;37.53;;;8.20;99.90;;;;;;4939229;29;20043;-87
2021/12/16 16:51:39;;;;;;;141.90;30.73;;;8.20;99.90;;;;;;4919760;29;20048;-87